sensor_id;sensor_type;location;lat;lon;timestamp;pressure;altitude;pressure_sealevel;temperature
6550;BMP280;15142;48.888;9.134;2022-11-03T00:00:08;98588.84;;;8.07
6550;BMP280;15142;48.888;9.134;2022-11-03T00:02:37;98588.25;;;8.00
6550;BMP280;15142;48.888;9.134;2022-11-03T00:05:04;98583.63;;;7.97
6550;BMP280;15142;48.888;9.134;2022-11-03T00:07:46;98578.53;;;7.97
6550;BMP280;15142;48.888;9.134;2022-11-03T00:10:13;98576.34;;;8.05
6550;BMP280;15142;48.888;9.134;2022-11-03T00:12:39;98573.09;;;8.10
6550;BMP280;15142;48.888;9.134;2022-11-03T00:15:08;98571.56;;;8.09
6550;BMP280;15142;48.888;9.134;2022-11-03T00:17:35;98563.47;;;8.12
6550;BMP280;15142;48.888;9.134;2022-11-03T00:20:01;98570.13;;;8.18
6550;BMP280;15142;48.888;9.134;2022-11-03T00:22:28;98559.94;;;8.18
6550;BMP280;15142;48.888;9.134;2022-11-03T00:24:57;98563.03;;;8.20
6550;BMP280;15142;48.888;9.134;2022-11-03T00:27:24;98553.09;;;8.18
6550;BMP280;15142;48.888;9.134;2022-11-03T00:29:50;98555.34;;;8.15
6550;BMP280;15142;48.888;9.134;2022-11-03T00:32:18;98552.28;;;8.13
6550;BMP280;15142;48.888;9.134;2022-11-03T00:34:45;98556.06;;;8.10
6550;BMP280;15142;48.888;9.134;2022-11-03T00:37:11;98539.53;;;8.08
6550;BMP280;15142;48.888;9.134;2022-11-03T00:39:38;98542.78;;;8.03
6550;BMP280;15142;48.888;9.134;2022-11-03T00:42:05;98536.41;;;8.01
6550;BMP280;15142;48.888;9.134;2022-11-03T00:44:31;98526.69;;;7.93
6550;BMP280;15142;48.888;9.134;2022-11-03T00:46:58;98527.16;;;7.90
6550;BMP280;15142;48.888;9.134;2022-11-03T00:49:25;98533.69;;;7.81
6550;BMP280;15142;48.888;9.134;2022-11-03T00:51:52;98529.31;;;7.77
6550;BMP280;15142;48.888;9.134;2022-11-03T00:54:19;98520.97;;;7.76
6550;BMP280;15142;48.888;9.134;2022-11-03T00:56:45;98526.75;;;7.77
6550;BMP280;15142;48.888;9.134;2022-11-03T00:59:12;98525.72;;;7.73
6550;BMP280;15142;48.888;9.134;2022-11-03T01:01:40;98517.25;;;7.68
6550;BMP280;15142;48.888;9.134;2022-11-03T01:04:07;98521.25;;;7.59
6550;BMP280;15142;48.888;9.134;2022-11-03T01:06:55;98520.44;;;7.53
6550;BMP280;15142;48.888;9.134;2022-11-03T01:09:24;98520.91;;;7.50
6550;BMP280;15142;48.888;9.134;2022-11-03T01:11:55;98518.19;;;7.57
6550;BMP280;15142;48.888;9.134;2022-11-03T01:14:24;98515.41;;;7.58
6550;BMP280;15142;48.888;9.134;2022-11-03T01:16:51;98518.75;;;7.64
6550;BMP280;15142;48.888;9.134;2022-11-03T01:19:18;98512.72;;;7.69
6550;BMP280;15142;48.888;9.134;2022-11-03T01:21:44;98501.88;;;7.74
6550;BMP280;15142;48.888;9.134;2022-11-03T01:24:12;98500.00;;;7.69
6550;BMP280;15142;48.888;9.134;2022-11-03T01:26:39;98497.56;;;7.74
6550;BMP280;15142;48.888;9.134;2022-11-03T01:29:05;98493.00;;;7.76
6550;BMP280;15142;48.888;9.134;2022-11-03T01:31:32;98492.25;;;7.81
6550;BMP280;15142;48.888;9.134;2022-11-03T01:33:58;98489.94;;;7.79
6550;BMP280;15142;48.888;9.134;2022-11-03T01:36:25;98478.00;;;7.75
6550;BMP280;15142;48.888;9.134;2022-11-03T01:38:53;98474.16;;;7.72
6550;BMP280;15142;48.888;9.134;2022-11-03T01:41:23;98466.97;;;7.65
6550;BMP280;15142;48.888;9.134;2022-11-03T01:44:03;98460.78;;;7.56
6550;BMP280;15142;48.888;9.134;2022-11-03T01:46:39;98460.97;;;7.49
6550;BMP280;15142;48.888;9.134;2022-11-03T01:49:10;98458.91;;;7.46
6550;BMP280;15142;48.888;9.134;2022-11-03T01:51:39;98452.50;;;7.39
6550;BMP280;15142;48.888;9.134;2022-11-03T01:54:09;98455.44;;;7.31
6550;BMP280;15142;48.888;9.134;2022-11-03T01:56:42;98459.00;;;7.30
6550;BMP280;15142;48.888;9.134;2022-11-03T01:59:11;98461.56;;;7.30
6550;BMP280;15142;48.888;9.134;2022-11-03T02:01:38;98456.72;;;7.34
6550;BMP280;15142;48.888;9.134;2022-11-03T02:04:08;98453.19;;;7.35
6550;BMP280;15142;48.888;9.134;2022-11-03T02:06:36;98456.72;;;7.34
6550;BMP280;15142;48.888;9.134;2022-11-03T02:09:04;98458.03;;;7.36
6550;BMP280;15142;48.888;9.134;2022-11-03T02:11:33;98457.03;;;7.37
6550;BMP280;15142;48.888;9.134;2022-11-03T02:14:19;98461.06;;;7.33
6550;BMP280;15142;48.888;9.134;2022-11-03T02:16:50;98459.00;;;7.30
6550;BMP280;15142;48.888;9.134;2022-11-03T02:19:26;98457.47;;;7.29
6550;BMP280;15142;48.888;9.134;2022-11-03T02:22:01;98447.47;;;7.23
6550;BMP280;15142;48.888;9.134;2022-11-03T02:24:35;98446.75;;;7.22
6550;BMP280;15142;48.888;9.134;2022-11-03T02:27:05;98437.31;;;7.23
6550;BMP280;15142;48.888;9.134;2022-11-03T02:29:32;98439.06;;;7.17
6550;BMP280;15142;48.888;9.134;2022-11-03T02:32:04;98437.19;;;7.08
6550;BMP280;15142;48.888;9.134;2022-11-03T02:34:38;98432.34;;;7.07
6550;BMP280;15142;48.888;9.134;2022-11-03T02:37:10;98419.66;;;7.07
6550;BMP280;15142;48.888;9.134;2022-11-03T02:39:40;98428.34;;;7.10
6550;BMP280;15142;48.888;9.134;2022-11-03T02:42:11;98418.19;;;7.10
6550;BMP280;15142;48.888;9.134;2022-11-03T02:44:38;98413.03;;;7.06
6550;BMP280;15142;48.888;9.134;2022-11-03T02:47:09;98412.47;;;6.99
6550;BMP280;15142;48.888;9.134;2022-11-03T02:49:37;98403.47;;;6.91
6550;BMP280;15142;48.888;9.134;2022-11-03T02:52:05;98403.19;;;6.88
6550;BMP280;15142;48.888;9.134;2022-11-03T02:54:34;98403.34;;;6.81
6550;BMP280;15142;48.888;9.134;2022-11-03T02:57:07;98399.53;;;6.79
6550;BMP280;15142;48.888;9.134;2022-11-03T02:59:48;98401.06;;;6.80
6550;BMP280;15142;48.888;9.134;2022-11-03T03:02:23;98390.38;;;6.78
6550;BMP280;15142;48.888;9.134;2022-11-03T03:04:54;98376.16;;;6.77
6550;BMP280;15142;48.888;9.134;2022-11-03T03:07:25;98377.44;;;6.75
6550;BMP280;15142;48.888;9.134;2022-11-03T03:09:57;98367.53;;;6.78
6550;BMP280;15142;48.888;9.134;2022-11-03T03:12:26;98368.16;;;6.85
6550;BMP280;15142;48.888;9.134;2022-11-03T03:14:55;98367.97;;;6.91
6550;BMP280;15142;48.888;9.134;2022-11-03T03:17:29;98363.72;;;6.97
6550;BMP280;15142;48.888;9.134;2022-11-03T03:20:02;98362.22;;;7.01
6550;BMP280;15142;48.888;9.134;2022-11-03T03:22:33;98357.91;;;7.01
6550;BMP280;15142;48.888;9.134;2022-11-03T03:25:05;98357.63;;;6.98
6550;BMP280;15142;48.888;9.134;2022-11-03T03:27:38;98361.59;;;6.89
6550;BMP280;15142;48.888;9.134;2022-11-03T03:30:09;98348.91;;;6.89
6550;BMP280;15142;48.888;9.134;2022-11-03T03:32:38;98343.25;;;6.82
6550;BMP280;15142;48.888;9.134;2022-11-03T03:35:09;98345.78;;;6.82
6550;BMP280;15142;48.888;9.134;2022-11-03T03:37:40;98342.25;;;6.83
6550;BMP280;15142;48.888;9.134;2022-11-03T03:40:10;98342.78;;;6.85
6550;BMP280;15142;48.888;9.134;2022-11-03T03:42:39;98341.31;;;6.89
6550;BMP280;15142;48.888;9.134;2022-11-03T03:45:11;98332.94;;;6.88
6550;BMP280;15142;48.888;9.134;2022-11-03T03:47:38;98329.69;;;6.93
6550;BMP280;15142;48.888;9.134;2022-11-03T03:50:05;98327.69;;;6.95
6550;BMP280;15142;48.888;9.134;2022-11-03T03:52:33;98321.53;;;6.91
6550;BMP280;15142;48.888;9.134;2022-11-03T03:55:00;98315.44;;;6.92
6550;BMP280;15142;48.888;9.134;2022-11-03T03:57:29;98319.59;;;6.98
6550;BMP280;15142;48.888;9.134;2022-11-03T03:59:57;98309.94;;;7.00
6550;BMP280;15142;48.888;9.134;2022-11-03T04:02:24;98309.00;;;7.06
6550;BMP280;15142;48.888;9.134;2022-11-03T04:04:51;98295.31;;;7.07
6550;BMP280;15142;48.888;9.134;2022-11-03T04:07:17;98294.31;;;7.07
6550;BMP280;15142;48.888;9.134;2022-11-03T04:10:02;98291.31;;;7.10
6550;BMP280;15142;48.888;9.134;2022-11-03T04:12:29;98281.63;;;7.07
6550;BMP280;15142;48.888;9.134;2022-11-03T04:15:13;98272.50;;;7.07
6550;BMP280;15142;48.888;9.134;2022-11-03T04:17:59;98270.47;;;7.08
6550;BMP280;15142;48.888;9.134;2022-11-03T04:20:43;98279.34;;;7.06
6550;BMP280;15142;48.888;9.134;2022-11-03T04:23:28;98273.25;;;7.07
6550;BMP280;15142;48.888;9.134;2022-11-03T04:25:55;98274.72;;;7.03
6550;BMP280;15142;48.888;9.134;2022-11-03T04:28:24;98271.44;;;7.03
6550;BMP280;15142;48.888;9.134;2022-11-03T04:30:51;98260.75;;;7.01
6550;BMP280;15142;48.888;9.134;2022-11-03T04:33:20;98261.72;;;6.95
6550;BMP280;15142;48.888;9.134;2022-11-03T04:35:47;98254.56;;;6.87
6550;BMP280;15142;48.888;9.134;2022-11-03T04:38:21;98256.47;;;6.80
6550;BMP280;15142;48.888;9.134;2022-11-03T04:40:51;98255.94;;;6.78
6550;BMP280;15142;48.888;9.134;2022-11-03T04:43:19;98253.41;;;6.78
6550;BMP280;15142;48.888;9.134;2022-11-03T04:45:47;98255.19;;;6.77
6550;BMP280;15142;48.888;9.134;2022-11-03T04:48:16;98246.34;;;6.80
6550;BMP280;15142;48.888;9.134;2022-11-03T04:50:46;98245.34;;;6.81
6550;BMP280;15142;48.888;9.134;2022-11-03T04:53:16;98235.22;;;6.81
6550;BMP280;15142;48.888;9.134;2022-11-03T04:55:45;98235.66;;;6.78
6550;BMP280;15142;48.888;9.134;2022-11-03T04:58:19;98236.69;;;6.77
6550;BMP280;15142;48.888;9.134;2022-11-03T05:00:46;98237.66;;;6.76
6550;BMP280;15142;48.888;9.134;2022-11-03T05:03:16;98238.28;;;6.83
6550;BMP280;15142;48.888;9.134;2022-11-03T05:05:42;98238.31;;;6.88
6550;BMP280;15142;48.888;9.134;2022-11-03T05:08:11;98230.97;;;6.91
6550;BMP280;15142;48.888;9.134;2022-11-03T05:10:37;98232.34;;;6.99
6550;BMP280;15142;48.888;9.134;2022-11-03T05:13:07;98231.34;;;7.05
6550;BMP280;15142;48.888;9.134;2022-11-03T05:15:37;98223.28;;;7.12
6550;BMP280;15142;48.888;9.134;2022-11-03T05:18:14;98221.81;;;7.16
6550;BMP280;15142;48.888;9.134;2022-11-03T05:20:45;98216.66;;;7.11
6550;BMP280;15142;48.888;9.134;2022-11-03T05:23:13;98212.13;;;7.08
6550;BMP280;15142;48.888;9.134;2022-11-03T05:25:42;98213.59;;;7.05
6550;BMP280;15142;48.888;9.134;2022-11-03T05:28:20;98211.00;;;7.00
6550;BMP280;15142;48.888;9.134;2022-11-03T05:30:48;98204.09;;;6.90
6550;BMP280;15142;48.888;9.134;2022-11-03T05:33:21;98203.75;;;6.82
6550;BMP280;15142;48.888;9.134;2022-11-03T05:35:48;98197.88;;;6.76
6550;BMP280;15142;48.888;9.134;2022-11-03T05:38:18;98193.03;;;6.70
6550;BMP280;15142;48.888;9.134;2022-11-03T05:40:48;98181.28;;;6.64
6550;BMP280;15142;48.888;9.134;2022-11-03T05:43:16;98188.63;;;6.61
6550;BMP280;15142;48.888;9.134;2022-11-03T05:45:43;98181.72;;;6.56
6550;BMP280;15142;48.888;9.134;2022-11-03T05:48:14;98176.84;;;6.50
6550;BMP280;15142;48.888;9.134;2022-11-03T05:50:42;98173.25;;;6.46
6550;BMP280;15142;48.888;9.134;2022-11-03T05:53:21;98171.72;;;6.45
6550;BMP280;15142;48.888;9.134;2022-11-03T05:55:51;98166.44;;;6.46
6550;BMP280;15142;48.888;9.134;2022-11-03T05:58:21;98173.50;;;6.44
6550;BMP280;15142;48.888;9.134;2022-11-03T06:00:49;98171.19;;;6.43
6550;BMP280;15142;48.888;9.134;2022-11-03T06:03:20;98168.88;;;6.42
6550;BMP280;15142;48.888;9.134;2022-11-03T06:05:48;98166.59;;;6.40
6550;BMP280;15142;48.888;9.134;2022-11-03T06:08:20;98159.25;;;6.39
6550;BMP280;15142;48.888;9.134;2022-11-03T06:10:48;98165.81;;;6.40
6550;BMP280;15142;48.888;9.134;2022-11-03T06:13:18;98167.38;;;6.41
6550;BMP280;15142;48.888;9.134;2022-11-03T06:15:46;98159.78;;;6.41
6550;BMP280;15142;48.888;9.134;2022-11-03T06:18:15;98151.91;;;6.42
6550;BMP280;15142;48.888;9.134;2022-11-03T06:20:48;98147.09;;;6.41
6550;BMP280;15142;48.888;9.134;2022-11-03T06:23:17;98132.78;;;6.30
6550;BMP280;15142;48.888;9.134;2022-11-03T06:25:45;98123.66;;;6.29
6550;BMP280;15142;48.888;9.134;2022-11-03T06:28:17;98124.72;;;6.33
6550;BMP280;15142;48.888;9.134;2022-11-03T06:30:45;98118.94;;;6.37
6550;BMP280;15142;48.888;9.134;2022-11-03T06:33:13;98121.25;;;6.43
6550;BMP280;15142;48.888;9.134;2022-11-03T06:35:41;98115.25;;;6.49
6550;BMP280;15142;48.888;9.134;2022-11-03T06:38:14;98118.06;;;6.53
6550;BMP280;15142;48.888;9.134;2022-11-03T06:40:41;98133.56;;;6.56
6550;BMP280;15142;48.888;9.134;2022-11-03T06:43:18;98133.59;;;6.61
6550;BMP280;15142;48.888;9.134;2022-11-03T06:45:49;98140.00;;;6.69
6550;BMP280;15142;48.888;9.134;2022-11-03T06:48:22;98136.75;;;6.78
6550;BMP280;15142;48.888;9.134;2022-11-03T06:50:49;98146.47;;;6.86
6550;BMP280;15142;48.888;9.134;2022-11-03T06:53:19;98148.84;;;6.97
6550;BMP280;15142;48.888;9.134;2022-11-03T06:55:47;98142.06;;;7.07
6550;BMP280;15142;48.888;9.134;2022-11-03T06:58:22;98148.22;;;7.16
6550;BMP280;15142;48.888;9.134;2022-11-03T07:00:50;98135.06;;;7.24
6550;BMP280;15142;48.888;9.134;2022-11-03T07:03:23;98127.47;;;7.29
6550;BMP280;15142;48.888;9.134;2022-11-03T07:05:55;98128.53;;;7.33
6550;BMP280;15142;48.888;9.134;2022-11-03T07:08:24;98117.38;;;7.39
6550;BMP280;15142;48.888;9.134;2022-11-03T07:10:59;98108.03;;;7.44
6550;BMP280;15142;48.888;9.134;2022-11-03T07:13:29;98113.38;;;7.58
6550;BMP280;15142;48.888;9.134;2022-11-03T07:15:57;98112.66;;;7.62
6550;BMP280;15142;48.888;9.134;2022-11-03T07:18:26;98107.31;;;7.64
6550;BMP280;15142;48.888;9.134;2022-11-03T07:20:54;98100.50;;;7.64
6550;BMP280;15142;48.888;9.134;2022-11-03T07:23:23;98088.53;;;7.69
6550;BMP280;15142;48.888;9.134;2022-11-03T07:25:52;98088.09;;;7.82
6550;BMP280;15142;48.888;9.134;2022-11-03T07:28:22;98092.44;;;7.87
6550;BMP280;15142;48.888;9.134;2022-11-03T07:30:51;98091.66;;;7.91
6550;BMP280;15142;48.888;9.134;2022-11-03T07:33:20;98093.47;;;8.05
6550;BMP280;15142;48.888;9.134;2022-11-03T07:35:47;98084.81;;;8.11
6550;BMP280;15142;48.888;9.134;2022-11-03T07:38:17;98086.13;;;8.24
6550;BMP280;15142;48.888;9.134;2022-11-03T07:40:44;98079.78;;;8.36
6550;BMP280;15142;48.888;9.134;2022-11-03T07:43:14;98073.69;;;8.42
6550;BMP280;15142;48.888;9.134;2022-11-03T07:45:43;98075.47;;;8.56
6550;BMP280;15142;48.888;9.134;2022-11-03T07:48:17;98070.09;;;8.58
6550;BMP280;15142;48.888;9.134;2022-11-03T07:50:44;98059.66;;;8.59
6550;BMP280;15142;48.888;9.134;2022-11-03T07:53:13;98069.34;;;8.72
6550;BMP280;15142;48.888;9.134;2022-11-03T07:55:43;98064.47;;;8.80
6550;BMP280;15142;48.888;9.134;2022-11-03T07:58:19;98054.53;;;8.89
6550;BMP280;15142;48.888;9.134;2022-11-03T08:00:46;98063.94;;;8.88
6550;BMP280;15142;48.888;9.134;2022-11-03T08:03:24;98061.88;;;9.00
6550;BMP280;15142;48.888;9.134;2022-11-03T08:05:52;98053.44;;;9.04
6550;BMP280;15142;48.888;9.134;2022-11-03T08:08:19;98050.38;;;9.12
6550;BMP280;15142;48.888;9.134;2022-11-03T08:10:45;98045.28;;;9.17
6550;BMP280;15142;48.888;9.134;2022-11-03T08:13:12;98034.59;;;9.15
6550;BMP280;15142;48.888;9.134;2022-11-03T08:15:38;98033.53;;;9.21
6550;BMP280;15142;48.888;9.134;2022-11-03T08:18:05;98025.38;;;9.24
6550;BMP280;15142;48.888;9.134;2022-11-03T08:20:33;98017.69;;;9.34
6550;BMP280;15142;48.888;9.134;2022-11-03T08:22:59;98006.97;;;9.42
6550;BMP280;15142;48.888;9.134;2022-11-03T08:25:26;98005.34;;;9.56
6550;BMP280;15142;48.888;9.134;2022-11-03T08:27:52;97999.84;;;9.77
6550;BMP280;15142;48.888;9.134;2022-11-03T08:30:19;97994.69;;;9.87
6550;BMP280;15142;48.888;9.134;2022-11-03T08:32:46;97999.25;;;9.89
6550;BMP280;15142;48.888;9.134;2022-11-03T08:35:12;97995.84;;;9.99
6550;BMP280;15142;48.888;9.134;2022-11-03T08:37:40;97994.50;;;10.11
6550;BMP280;15142;48.888;9.134;2022-11-03T08:40:08;97987.97;;;10.23
6550;BMP280;15142;48.888;9.134;2022-11-03T08:42:35;97982.03;;;10.33
6550;BMP280;15142;48.888;9.134;2022-11-03T08:45:01;97975.31;;;10.42
6550;BMP280;15142;48.888;9.134;2022-11-03T08:47:28;97978.22;;;10.53
6550;BMP280;15142;48.888;9.134;2022-11-03T08:49:55;97975.91;;;10.57
6550;BMP280;15142;48.888;9.134;2022-11-03T08:52:21;97977.97;;;10.55
6550;BMP280;15142;48.888;9.134;2022-11-03T08:54:49;97959.00;;;10.61
6550;BMP280;15142;48.888;9.134;2022-11-03T08:57:16;97963.56;;;10.64
6550;BMP280;15142;48.888;9.134;2022-11-03T08:59:42;97957.38;;;10.70
6550;BMP280;15142;48.888;9.134;2022-11-03T09:02:09;97968.78;;;10.77
6550;BMP280;15142;48.888;9.134;2022-11-03T09:04:36;97957.81;;;10.77
6550;BMP280;15142;48.888;9.134;2022-11-03T09:07:02;97958.13;;;10.70
6550;BMP280;15142;48.888;9.134;2022-11-03T09:09:29;97954.22;;;10.77
6550;BMP280;15142;48.888;9.134;2022-11-03T09:11:56;97952.59;;;10.86
6550;BMP280;15142;48.888;9.134;2022-11-03T09:14:23;97944.38;;;10.89
6550;BMP280;15142;48.888;9.134;2022-11-03T09:16:49;97936.63;;;10.94
6550;BMP280;15142;48.888;9.134;2022-11-03T09:19:16;97935.47;;;11.05
6550;BMP280;15142;48.888;9.134;2022-11-03T09:21:43;97941.94;;;11.16
6550;BMP280;15142;48.888;9.134;2022-11-03T09:24:09;97928.16;;;11.17
6550;BMP280;15142;48.888;9.134;2022-11-03T09:26:36;97935.56;;;11.18
6550;BMP280;15142;48.888;9.134;2022-11-03T09:29:04;97940.09;;;11.21
6550;BMP280;15142;48.888;9.134;2022-11-03T09:31:30;97942.25;;;11.33
6550;BMP280;15142;48.888;9.134;2022-11-03T09:33:57;97934.59;;;11.46
6550;BMP280;15142;48.888;9.134;2022-11-03T09:36:23;97920.53;;;11.48
6550;BMP280;15142;48.888;9.134;2022-11-03T09:38:50;97916.38;;;11.52
6550;BMP280;15142;48.888;9.134;2022-11-03T09:41:17;97911.28;;;11.66
6550;BMP280;15142;48.888;9.134;2022-11-03T09:43:44;97919.47;;;11.81
6550;BMP280;15142;48.888;9.134;2022-11-03T09:46:12;97923.25;;;11.83
6550;BMP280;15142;48.888;9.134;2022-11-03T09:48:40;97923.19;;;12.01
6550;BMP280;15142;48.888;9.134;2022-11-03T09:51:08;97905.75;;;12.03
6550;BMP280;15142;48.888;9.134;2022-11-03T09:53:36;97892.03;;;12.26
6550;BMP280;15142;48.888;9.134;2022-11-03T09:56:02;97897.88;;;12.40
6550;BMP280;15142;48.888;9.134;2022-11-03T09:58:31;97893.59;;;12.49
6550;BMP280;15142;48.888;9.134;2022-11-03T10:00:59;97883.06;;;12.50
6550;BMP280;15142;48.888;9.134;2022-11-03T10:03:27;97879.31;;;12.48
6550;BMP280;15142;48.888;9.134;2022-11-03T10:05:54;97878.53;;;12.47
6550;BMP280;15142;48.888;9.134;2022-11-03T10:08:22;97872.44;;;12.56
6550;BMP280;15142;48.888;9.134;2022-11-03T10:10:49;97872.97;;;12.67
6550;BMP280;15142;48.888;9.134;2022-11-03T10:13:22;97864.06;;;12.64
6550;BMP280;15142;48.888;9.134;2022-11-03T10:15:52;97866.19;;;12.62
6550;BMP280;15142;48.888;9.134;2022-11-03T10:18:18;97866.63;;;12.64
6550;BMP280;15142;48.888;9.134;2022-11-03T10:20:46;97867.09;;;12.66
6550;BMP280;15142;48.888;9.134;2022-11-03T10:23:13;97867.28;;;12.70
6550;BMP280;15142;48.888;9.134;2022-11-03T10:25:41;97864.41;;;12.71
6550;BMP280;15142;48.888;9.134;2022-11-03T10:28:13;97857.59;;;12.80
6550;BMP280;15142;48.888;9.134;2022-11-03T10:30:48;97848.59;;;12.91
6550;BMP280;15142;48.888;9.134;2022-11-03T10:33:24;97835.72;;;12.83
6550;BMP280;15142;48.888;9.134;2022-11-03T10:35:55;97836.97;;;12.85
6550;BMP280;15142;48.888;9.134;2022-11-03T10:38:25;97830.19;;;12.89
6550;BMP280;15142;48.888;9.134;2022-11-03T10:40:56;97830.53;;;12.87
6550;BMP280;15142;48.888;9.134;2022-11-03T10:43:34;97824.16;;;12.85
6550;BMP280;15142;48.888;9.134;2022-11-03T10:46:09;97818.78;;;12.95
6550;BMP280;15142;48.888;9.134;2022-11-03T10:48:37;97815.78;;;12.93
6550;BMP280;15142;48.888;9.134;2022-11-03T10:51:09;97817.06;;;13.04
6550;BMP280;15142;48.888;9.134;2022-11-03T10:53:36;97805.16;;;13.08
6550;BMP280;15142;48.888;9.134;2022-11-03T10:56:03;97801.81;;;12.99
6550;BMP280;15142;48.888;9.134;2022-11-03T10:58:30;97802.09;;;12.97
6550;BMP280;15142;48.888;9.134;2022-11-03T11:00:59;97800.63;;;13.05
6550;BMP280;15142;48.888;9.134;2022-11-03T11:03:25;97790.84;;;13.07
6550;BMP280;15142;48.888;9.134;2022-11-03T11:05:52;97789.84;;;13.16
6550;BMP280;15142;48.888;9.134;2022-11-03T11:08:21;97783.81;;;13.20
6550;BMP280;15142;48.888;9.134;2022-11-03T11:10:48;97775.22;;;13.16
6550;BMP280;15142;48.888;9.134;2022-11-03T11:13:24;97760.47;;;13.22
6550;BMP280;15142;48.888;9.134;2022-11-03T11:15:52;97753.53;;;13.22
6550;BMP280;15142;48.888;9.134;2022-11-03T11:21:59;97744.38;;;13.38
6550;BMP280;15142;48.888;9.134;2022-11-03T11:25:02;97740.91;;;13.34
6550;BMP280;15142;48.888;9.134;2022-11-03T11:28:10;97739.25;;;13.38
6550;BMP280;15142;48.888;9.134;2022-11-03T11:31:00;97731.00;;;13.41
6550;BMP280;15142;48.888;9.134;2022-11-03T11:33:28;97746.09;;;13.51
6550;BMP280;15142;48.888;9.134;2022-11-03T11:36:19;97734.78;;;13.52
6550;BMP280;15142;48.888;9.134;2022-11-03T11:38:54;97728.94;;;13.60
6550;BMP280;15142;48.888;9.134;2022-11-03T11:44:40;97721.38;;;13.55
6550;BMP280;15142;48.888;9.134;2022-11-03T11:47:29;97718.22;;;13.58
6550;BMP280;15142;48.888;9.134;2022-11-03T11:50:05;97705.69;;;13.65
6550;BMP280;15142;48.888;9.134;2022-11-03T11:52:41;97698.78;;;13.65
6550;BMP280;15142;48.888;9.134;2022-11-03T11:55:16;97688.53;;;13.65
6550;BMP280;15142;48.888;9.134;2022-11-03T11:57:44;97683.97;;;13.62
6550;BMP280;15142;48.888;9.134;2022-11-03T12:00:20;97685.34;;;13.60
6550;BMP280;15142;48.888;9.134;2022-11-03T12:02:48;97672.53;;;13.60
6550;BMP280;15142;48.888;9.134;2022-11-03T12:05:20;97670.09;;;13.55
6550;BMP280;15142;48.888;9.134;2022-11-03T12:07:47;97662.84;;;13.57
6550;BMP280;15142;48.888;9.134;2022-11-03T12:10:15;97665.28;;;13.62
6550;BMP280;15142;48.888;9.134;2022-11-03T12:12:43;97668.28;;;13.64
6550;BMP280;15142;48.888;9.134;2022-11-03T12:15:48;97653.09;;;13.67
6550;BMP280;15142;48.888;9.134;2022-11-03T12:18:28;97645.22;;;13.64
6550;BMP280;15142;48.888;9.134;2022-11-03T12:20:55;97658.16;;;13.59
6550;BMP280;15142;48.888;9.134;2022-11-03T12:23:35;97653.34;;;13.57
6550;BMP280;15142;48.888;9.134;2022-11-03T12:26:03;97648.53;;;13.56
6550;BMP280;15142;48.888;9.134;2022-11-03T12:28:33;97638.56;;;13.54
6550;BMP280;15142;48.888;9.134;2022-11-03T12:31:00;97635.25;;;13.45
6550;BMP280;15142;48.888;9.134;2022-11-03T12:33:27;97627.22;;;13.39
6550;BMP280;15142;48.888;9.134;2022-11-03T12:35:54;97622.09;;;13.39
6550;BMP280;15142;48.888;9.134;2022-11-03T12:38:21;97617.59;;;13.44
6550;BMP280;15142;48.888;9.134;2022-11-03T12:40:48;97598.59;;;13.37
6550;BMP280;15142;48.888;9.134;2022-11-03T12:43:15;97598.91;;;13.35
6550;BMP280;15142;48.888;9.134;2022-11-03T12:45:42;97583.81;;;13.34
6550;BMP280;15142;48.888;9.134;2022-11-03T12:48:09;97591.69;;;13.37
6550;BMP280;15142;48.888;9.134;2022-11-03T12:50:36;97584.28;;;13.36
6550;BMP280;15142;48.888;9.134;2022-11-03T12:53:04;97591.06;;;13.40
6550;BMP280;15142;48.888;9.134;2022-11-03T12:55:32;97577.06;;;13.38
6550;BMP280;15142;48.888;9.134;2022-11-03T12:57:58;97561.66;;;13.38
6550;BMP280;15142;48.888;9.134;2022-11-03T13:00:25;97572.22;;;13.36
6550;BMP280;15142;48.888;9.134;2022-11-03T13:02:53;97564.69;;;13.31
6550;BMP280;15142;48.888;9.134;2022-11-03T13:05:20;97564.78;;;13.26
6550;BMP280;15142;48.888;9.134;2022-11-03T13:07:46;97554.72;;;13.21
6550;BMP280;15142;48.888;9.134;2022-11-03T13:10:13;97537.34;;;13.27
6550;BMP280;15142;48.888;9.134;2022-11-03T13:12:40;97539.47;;;13.25
6550;BMP280;15142;48.888;9.134;2022-11-03T13:15:10;97533.59;;;13.16
6550;BMP280;15142;48.888;9.134;2022-11-03T13:17:37;97528.94;;;13.10
6550;BMP280;15142;48.888;9.134;2022-11-03T13:20:06;97518.34;;;13.03
6550;BMP280;15142;48.888;9.134;2022-11-03T13:22:34;97506.28;;;13.03
6550;BMP280;15142;48.888;9.134;2022-11-03T13:25:00;97493.78;;;13.02
6550;BMP280;15142;48.888;9.134;2022-11-03T13:27:27;97494.09;;;13.00
6550;BMP280;15142;48.888;9.134;2022-11-03T13:29:53;97489.00;;;13.00
6550;BMP280;15142;48.888;9.134;2022-11-03T13:32:21;97486.56;;;12.95
6550;BMP280;15142;48.888;9.134;2022-11-03T13:34:47;97484.31;;;12.94
6550;BMP280;15142;48.888;9.134;2022-11-03T13:37:15;97476.31;;;12.95
6550;BMP280;15142;48.888;9.134;2022-11-03T13:39:42;97469.56;;;12.99
6550;BMP280;15142;48.888;9.134;2022-11-03T13:42:08;97465.47;;;12.98
6550;BMP280;15142;48.888;9.134;2022-11-03T13:44:35;97462.16;;;12.98
6550;BMP280;15142;48.888;9.134;2022-11-03T13:47:01;97453.59;;;12.94
6550;BMP280;15142;48.888;9.134;2022-11-03T13:49:28;97450.56;;;12.92
6550;BMP280;15142;48.888;9.134;2022-11-03T13:51:55;97444.97;;;12.90
6550;BMP280;15142;48.888;9.134;2022-11-03T13:54:23;97433.38;;;12.84
6550;BMP280;15142;48.888;9.134;2022-11-03T13:56:49;97435.66;;;12.86
6550;BMP280;15142;48.888;9.134;2022-11-03T13:59:16;97420.09;;;12.82
6550;BMP280;15142;48.888;9.134;2022-11-03T14:01:42;97418.59;;;12.81
6550;BMP280;15142;48.888;9.134;2022-11-03T14:04:09;97423.72;;;12.81
6550;BMP280;15142;48.888;9.134;2022-11-03T14:06:36;97408.38;;;12.81
6550;BMP280;15142;48.888;9.134;2022-11-03T14:09:03;97400.69;;;12.81
6550;BMP280;15142;48.888;9.134;2022-11-03T14:11:31;97409.84;;;12.82
6550;BMP280;15142;48.888;9.134;2022-11-03T14:14:15;97402.19;;;12.82
6550;BMP280;15142;48.888;9.134;2022-11-03T14:16:41;97402.91;;;12.83
6550;BMP280;15142;48.888;9.134;2022-11-03T14:19:08;97382.91;;;12.85
6550;BMP280;15142;48.888;9.134;2022-11-03T14:21:34;97379.31;;;12.86
6550;BMP280;15142;48.888;9.134;2022-11-03T14:24:03;97389.38;;;12.82
6550;BMP280;15142;48.888;9.134;2022-11-03T14:26:31;97372.94;;;12.83
6550;BMP280;15142;48.888;9.134;2022-11-03T14:28:58;97374.00;;;12.82
6550;BMP280;15142;48.888;9.134;2022-11-03T14:31:25;97383.81;;;12.80
6550;BMP280;15142;48.888;9.134;2022-11-03T14:33:51;97367.38;;;12.81
6550;BMP280;15142;48.888;9.134;2022-11-03T14:36:18;97358.97;;;12.72
6550;BMP280;15142;48.888;9.134;2022-11-03T14:38:44;97361.06;;;12.70
6550;BMP280;15142;48.888;9.134;2022-11-03T14:41:11;97367.69;;;12.71
6550;BMP280;15142;48.888;9.134;2022-11-03T14:43:56;97353.66;;;12.77
6550;BMP280;15142;48.888;9.134;2022-11-03T14:46:23;97356.22;;;12.77
6550;BMP280;15142;48.888;9.134;2022-11-03T14:48:49;97360.31;;;12.78